Seminole, Texas
Current Conditions -  °F | °C
As of 3:55 AM on Sunday 23 Nov 2014 (Local Time) from KGNC Reporting Station
Clear Clear  
Wind Chill: 53°   Ceiling: Unl
Heat Index: 53°   Visibility: 10mi
Dew Point: 24°   Wind: 13mph
Humidity: 33%   Direction: 270°W
Pressure: 29.65"   Gusts: NA
Location:  32.73°N, 102.64°W
Report Text: KGNC 230955Z AUTO 27011KT 10SM CLR 11/M05 A2965 RMK AO2 T01141046
Loading
Personal Weather Stations






























Interactive Weather Map New forecast layout! Learn more

10-Day Weather Forecast

Advertisements
Track Severe Weather on mobile